createdAt,value
2023-04-16T00:01:13.990Z,12.68
2023-04-16T00:03:42.593Z,17.60
2023-04-16T00:06:12.603Z,15.18
2023-04-16T00:08:41.451Z,22.08
2023-04-16T00:11:09.808Z,15.45
2023-04-16T00:13:38.253Z,14.27
2023-04-16T00:16:09.147Z,18.45
2023-04-16T00:18:37.463Z,17.35
2023-04-16T00:21:05.989Z,20.25
2023-04-16T00:23:34.320Z,22.42
2023-04-16T00:26:02.916Z,16.95
2023-04-16T00:28:31.189Z,16.13
2023-04-16T00:30:59.760Z,23.02
2023-04-16T00:33:30.166Z,20.65
2023-04-16T00:35:58.920Z,19.70
2023-04-16T00:38:30.356Z,30.35
2023-04-16T00:40:58.881Z,27.73
2023-04-16T00:43:28.118Z,21.58
2023-04-16T00:45:58.571Z,24.65
2023-04-16T00:48:28.906Z,24.27
2023-04-16T00:50:57.392Z,22.02
2023-04-16T00:53:26.990Z,20.98
2023-04-16T00:55:57.176Z,19.52
2023-04-16T00:58:25.513Z,17.55
2023-04-16T01:00:53.766Z,14.10
2023-04-16T01:03:22.321Z,11.55
2023-04-16T01:05:52.966Z,18.90
2023-04-16T01:08:22.931Z,17.80
2023-04-16T01:10:53.135Z,13.57
2023-04-16T01:13:21.469Z,11.02
2023-04-16T01:15:49.805Z,15.93
2023-04-16T01:18:19.078Z,13.27
2023-04-16T01:20:49.301Z,15.80
2023-04-16T01:23:18.597Z,17.50
2023-04-16T01:25:48.507Z,9.75
2023-04-16T01:28:17.058Z,15.88
2023-04-16T01:30:45.558Z,13.32
2023-04-16T01:33:14.833Z,13.48
2023-04-16T01:35:43.482Z,14.27
2023-04-16T01:38:13.147Z,16.50
2023-04-16T01:40:41.406Z,13.88
2023-04-16T01:43:09.797Z,13.80
2023-04-16T01:45:38.283Z,20.33
2023-04-16T01:48:07.497Z,12.07
2023-04-16T01:50:36.784Z,16.52
2023-04-16T01:53:05.280Z,16.73
2023-04-16T01:55:35.619Z,11.93
2023-04-16T01:58:03.989Z,27.02
2023-04-16T02:00:32.481Z,18.42
2023-04-16T02:03:01.416Z,15.20
2023-04-16T02:05:29.969Z,16.73
2023-04-16T02:07:58.250Z,17.80
2023-04-16T02:10:26.626Z,18.95
2023-04-16T02:12:56.606Z,20.15
2023-04-16T02:15:25.479Z,20.90
2023-04-16T02:17:56.878Z,24.95
2023-04-16T02:20:25.365Z,16.17
2023-04-16T02:22:54.067Z,20.75
2023-04-16T02:25:23.141Z,19.92
2023-04-16T02:27:51.432Z,20.88
2023-04-16T02:30:21.406Z,16.85
2023-04-16T02:32:49.841Z,24.48
2023-04-16T02:35:18.266Z,18.30
2023-04-16T02:37:46.658Z,22.85
2023-04-16T02:40:15.340Z,21.95
2023-04-16T02:42:43.889Z,22.13
2023-04-16T02:45:13.464Z,20.80
2023-04-16T02:47:43.334Z,27.40
2023-04-16T02:50:12.649Z,21.55
2023-04-16T02:52:40.969Z,23.52
2023-04-16T02:55:11.404Z,23.63
2023-04-16T02:57:39.772Z,19.13
2023-04-16T03:00:09.936Z,21.80
2023-04-16T03:02:38.353Z,20.38
2023-04-16T03:05:09.231Z,21.75
2023-04-16T03:07:39.210Z,22.42
2023-04-16T03:10:09.439Z,20.60
2023-04-16T03:12:38.000Z,18.48
2023-04-16T03:15:07.679Z,26.27
2023-04-16T03:17:36.020Z,23.92
2023-04-16T03:20:05.324Z,22.05
2023-04-16T03:22:35.017Z,23.23
2023-04-16T03:25:03.410Z,18.15
2023-04-16T03:27:31.846Z,20.95
2023-04-16T03:30:00.159Z,25.60
2023-04-16T03:32:28.801Z,21.45
2023-04-16T03:34:57.094Z,18.02
2023-04-16T03:37:25.630Z,22.45
2023-04-16T03:39:55.486Z,23.55
2023-04-16T03:42:23.921Z,18.52
2023-04-16T03:44:53.674Z,20.75
2023-04-16T03:47:22.093Z,18.88
2023-04-16T03:49:51.027Z,21.38
2023-04-16T03:52:19.311Z,21.48
2023-04-16T03:54:47.780Z,19.73
2023-04-16T03:57:17.429Z,17.85
2023-04-16T03:59:45.710Z,15.50
2023-04-16T04:02:14.050Z,24.23
2023-04-16T04:04:42.490Z,24.98
2023-04-16T04:07:10.797Z,24.80
2023-04-16T04:09:39.219Z,20.45
2023-04-16T04:12:07.506Z,21.50
2023-04-16T04:14:39.860Z,22.80
2023-04-16T04:17:09.205Z,30.80
2023-04-16T04:19:40.284Z,23.77
2023-04-16T04:22:10.863Z,27.80
2023-04-16T04:24:39.162Z,25.30
2023-04-16T04:27:07.428Z,21.65
2023-04-16T04:29:37.180Z,27.33
2023-04-16T04:32:06.354Z,23.40
2023-04-16T04:34:34.749Z,20.27
2023-04-16T04:37:03.040Z,26.02
2023-04-16T04:39:31.334Z,20.85
2023-04-16T04:41:59.758Z,22.63
2023-04-16T04:44:28.165Z,24.63
2023-04-16T04:46:57.854Z,17.73
2023-04-16T04:49:26.100Z,13.68
2023-04-16T04:51:54.405Z,19.92
2023-04-16T04:54:22.798Z,14.65
2023-04-16T04:56:52.585Z,16.40
2023-04-16T04:59:22.087Z,15.27
2023-04-16T05:01:50.469Z,14.27
2023-04-16T05:04:20.195Z,15.40
2023-04-16T05:06:51.569Z,12.00
2023-04-16T05:09:20.020Z,16.70
2023-04-16T05:11:51.003Z,20.98
2023-04-16T05:14:19.348Z,14.65
2023-04-16T05:16:49.824Z,20.67
2023-04-16T05:19:19.546Z,12.15
2023-04-16T05:21:50.670Z,15.80
2023-04-16T05:24:19.033Z,19.48
2023-04-16T05:26:49.906Z,26.02
2023-04-16T05:29:18.232Z,22.80
2023-04-16T05:31:49.326Z,19.92
2023-04-16T05:34:19.150Z,20.70
2023-04-16T05:36:50.504Z,24.60
2023-04-16T05:39:19.821Z,20.15
2023-04-16T05:41:48.137Z,22.00
2023-04-16T05:44:17.392Z,27.48
2023-04-16T05:46:45.759Z,27.73
2023-04-16T05:49:14.049Z,21.05
2023-04-16T05:51:43.794Z,22.73
2023-04-16T05:54:12.020Z,22.08
2023-04-16T05:56:40.359Z,26.48
2023-04-16T05:59:10.442Z,25.45
2023-04-16T06:01:39.197Z,24.27
2023-04-16T06:04:07.577Z,30.73
2023-04-16T06:06:37.485Z,29.83
2023-04-16T06:09:07.253Z,27.75
2023-04-16T06:11:36.514Z,29.02
2023-04-16T06:14:05.192Z,22.58
2023-04-16T06:16:33.645Z,25.88
2023-04-16T06:19:02.075Z,20.50
2023-04-16T06:21:31.798Z,31.55
2023-04-16T06:24:00.140Z,27.13
2023-04-16T06:26:29.809Z,22.92
2023-04-16T06:28:58.145Z,26.77
2023-04-16T06:31:26.611Z,24.20
2023-04-16T06:33:55.280Z,21.75
2023-04-16T06:36:23.615Z,23.90
2023-04-16T06:38:51.899Z,23.35
2023-04-16T06:41:20.267Z,26.42
2023-04-16T06:43:50.010Z,21.42
2023-04-16T06:46:18.309Z,28.27
2023-04-16T06:48:49.113Z,26.65
2023-04-16T06:51:17.508Z,31.45
2023-04-16T06:53:45.911Z,19.50
2023-04-16T06:56:14.179Z,28.52
2023-04-16T06:58:42.624Z,23.55
2023-04-16T07:01:12.474Z,31.85
2023-04-16T07:03:52.497Z,28.48
2023-04-16T07:06:24.179Z,23.35
2023-04-16T07:08:52.568Z,31.45
2023-04-16T07:11:21.035Z,31.25
2023-04-16T07:13:51.207Z,27.17
2023-04-16T07:16:21.153Z,27.48
2023-04-16T07:18:50.346Z,31.92
2023-04-16T07:21:19.012Z,30.08
2023-04-16T07:23:53.332Z,35.03
2023-04-16T07:26:21.701Z,24.75
2023-04-16T07:28:50.022Z,29.25
2023-04-16T07:31:18.455Z,32.63
2023-04-16T07:33:48.380Z,36.45
2023-04-16T07:36:16.786Z,33.33
2023-04-16T07:38:49.249Z,34.53
2023-04-16T07:41:18.394Z,41.55
2023-04-16T07:43:46.711Z,35.47
2023-04-16T07:46:14.991Z,36.65
2023-04-16T07:48:43.835Z,36.33
2023-04-16T07:51:13.640Z,36.10
2023-04-16T07:53:43.359Z,30.73
2023-04-16T07:56:11.724Z,31.80
2023-04-16T07:58:40.101Z,31.65
2023-04-16T08:01:08.450Z,31.05
2023-04-16T08:03:36.958Z,27.42
2023-04-16T08:06:05.879Z,31.77
2023-04-16T08:08:36.694Z,32.28
2023-04-16T08:11:05.334Z,35.65
2023-04-16T08:13:33.859Z,32.38
2023-04-16T08:16:02.722Z,42.17
2023-04-16T08:18:31.258Z,35.17
2023-04-16T08:20:59.895Z,36.55
2023-04-16T08:23:28.426Z,37.95
2023-04-16T08:25:58.170Z,35.42
2023-04-16T08:28:26.443Z,36.78
2023-04-16T08:30:54.864Z,30.60
2023-04-16T08:33:23.326Z,38.65
2023-04-16T08:35:51.613Z,30.35
2023-04-16T08:38:19.900Z,30.00
2023-04-16T08:40:50.668Z,30.50
2023-04-16T08:43:23.011Z,32.63
2023-04-16T08:45:52.147Z,30.17
2023-04-16T08:48:22.126Z,33.90
2023-04-16T08:50:55.597Z,29.52
2023-04-16T08:53:34.144Z,30.10
2023-04-16T08:56:07.219Z,29.33
2023-04-16T08:58:38.662Z,34.13
2023-04-16T09:01:07.768Z,33.20
2023-04-16T09:03:37.050Z,34.20
2023-04-16T09:06:08.911Z,36.03
2023-04-16T09:08:38.250Z,36.40
2023-04-16T09:11:07.544Z,34.35
2023-04-16T09:13:39.727Z,33.28
2023-04-16T09:16:09.731Z,34.47
2023-04-16T09:18:38.470Z,33.42
2023-04-16T09:21:07.936Z,36.33
2023-04-16T09:23:36.721Z,34.08
2023-04-16T09:26:07.104Z,37.08
2023-04-16T09:28:44.791Z,37.08
2023-04-16T09:31:16.113Z,31.88
2023-04-16T09:33:46.496Z,38.20
2023-04-16T09:36:14.981Z,29.33
2023-04-16T09:38:51.457Z,34.13
2023-04-16T09:41:27.287Z,38.85
2023-04-16T09:43:58.803Z,36.67
2023-04-16T09:46:32.502Z,33.80
2023-04-16T09:49:07.479Z,32.58
2023-04-16T09:51:39.054Z,33.88
2023-04-16T09:54:07.736Z,33.15
2023-04-16T09:56:41.998Z,36.80
2023-04-16T09:59:18.708Z,35.85
2023-04-16T10:01:49.397Z,29.58
2023-04-16T10:04:18.221Z,43.28
2023-04-16T10:06:51.893Z,43.47
2023-04-16T10:09:20.235Z,40.42
2023-04-16T10:11:49.844Z,30.90
2023-04-16T10:14:19.543Z,39.80
2023-04-16T10:16:48.093Z,32.58
2023-04-16T10:19:17.015Z,32.92
2023-04-16T10:21:47.566Z,34.92
2023-04-16T10:24:18.084Z,37.03
2023-04-16T10:26:49.571Z,38.10
2023-04-16T10:29:20.232Z,35.67
2023-04-16T10:31:52.618Z,32.90
2023-04-16T10:34:22.201Z,36.08
2023-04-16T10:36:52.949Z,34.20
2023-04-16T10:39:24.565Z,30.10
2023-04-16T10:42:08.033Z,33.05
2023-04-16T10:44:37.914Z,37.55
2023-04-16T10:47:13.341Z,32.42
2023-04-16T10:49:42.591Z,39.45
2023-04-16T10:52:14.841Z,36.15
2023-04-16T10:54:49.796Z,42.92
2023-04-16T10:57:21.277Z,34.80
2023-04-16T10:59:51.306Z,37.05
2023-04-16T11:02:20.396Z,39.45
2023-04-16T11:04:50.331Z,37.33
2023-04-16T11:07:20.993Z,36.90
2023-04-16T11:09:59.368Z,33.92
2023-04-16T11:12:35.161Z,35.88
2023-04-16T11:15:06.878Z,41.90
2023-04-16T11:17:40.229Z,38.85
2023-04-16T11:20:18.943Z,35.83
2023-04-16T11:22:49.884Z,40.05
2023-04-16T11:25:22.192Z,42.03
2023-04-16T11:27:50.533Z,45.20
2023-04-16T11:30:28.734Z,40.58
2023-04-16T11:32:57.229Z,43.47
2023-04-16T11:35:25.760Z,46.50
2023-04-16T11:37:58.003Z,41.75
2023-04-16T11:40:31.027Z,34.58
2023-04-16T11:43:04.268Z,42.22
2023-04-16T11:45:34.034Z,41.53
2023-04-16T11:48:02.736Z,43.42
2023-04-16T11:50:31.386Z,37.25
2023-04-16T11:53:06.341Z,37.15
2023-04-16T11:55:45.350Z,33.53
2023-04-16T11:58:16.006Z,35.58
2023-04-16T12:00:49.706Z,33.72
2023-04-16T12:03:18.220Z,35.45
2023-04-16T12:05:47.459Z,38.03
2023-04-16T12:08:31.800Z,33.10
2023-04-16T12:11:00.288Z,32.72
2023-04-16T12:13:28.724Z,38.15
2023-04-16T12:15:58.800Z,30.48
2023-04-16T12:18:28.106Z,37.42
2023-04-16T12:20:56.640Z,33.85
2023-04-16T12:23:27.410Z,31.23
2023-04-16T12:25:56.758Z,33.05
2023-04-16T12:28:33.556Z,30.55
2023-04-16T12:31:03.961Z,30.20
2023-04-16T12:33:32.718Z,31.45
2023-04-16T12:36:01.802Z,30.17
2023-04-16T12:38:30.705Z,33.63
2023-04-16T12:40:59.042Z,31.00
2023-04-16T12:43:27.710Z,38.40
2023-04-16T12:45:56.251Z,34.20
2023-04-16T12:48:26.194Z,30.27
2023-04-16T12:50:55.896Z,30.10
2023-04-16T12:53:24.347Z,32.92
2023-04-16T12:55:52.757Z,31.08
2023-04-16T12:58:21.271Z,30.05
2023-04-16T13:00:52.401Z,34.35
2023-04-16T13:03:22.059Z,48.25
2023-04-16T13:05:56.970Z,33.78
2023-04-16T13:08:25.449Z,34.35
2023-04-16T13:10:53.817Z,36.10
2023-04-16T13:13:22.293Z,33.38
2023-04-16T13:15:53.866Z,33.72
2023-04-16T13:18:23.110Z,34.00
2023-04-16T13:20:51.494Z,35.42
2023-04-16T13:23:21.269Z,36.70
2023-04-16T13:25:50.658Z,32.70
2023-04-16T13:28:19.204Z,35.40
2023-04-16T13:30:50.803Z,34.85
2023-04-16T13:33:19.556Z,33.38
2023-04-16T13:35:48.138Z,32.70
2023-04-16T13:38:16.881Z,28.52
2023-04-16T13:40:48.479Z,32.28
2023-04-16T13:43:23.808Z,31.02
2023-04-16T13:45:55.126Z,29.60
2023-04-16T13:48:23.628Z,32.35
2023-04-16T13:50:52.234Z,32.30
2023-04-16T13:53:21.017Z,32.72
2023-04-16T13:55:53.867Z,34.25
2023-04-16T13:58:22.538Z,31.67
2023-04-16T14:00:51.155Z,38.45
2023-04-16T14:03:19.967Z,31.10
2023-04-16T14:05:50.395Z,40.42
2023-04-16T14:08:21.392Z,31.52
2023-04-16T14:10:49.882Z,32.67
2023-04-16T14:13:19.690Z,31.48
2023-04-16T14:15:48.162Z,25.65
2023-04-16T14:18:16.553Z,26.52
2023-04-16T14:20:46.983Z,29.23
2023-04-16T14:23:15.328Z,30.20
2023-04-16T14:25:43.689Z,32.22
2023-04-16T14:28:13.646Z,35.13
2023-04-16T14:30:47.619Z,32.65
2023-04-16T14:33:16.049Z,34.08
2023-04-16T14:35:44.882Z,31.55
2023-04-16T14:38:13.477Z,32.83
2023-04-16T14:40:41.849Z,39.05
2023-04-16T14:43:10.223Z,39.50
2023-04-16T14:45:39.175Z,34.53
2023-04-16T14:48:09.069Z,34.10
2023-04-16T14:50:38.945Z,40.70
2023-04-16T14:53:07.402Z,31.83
2023-04-16T14:55:35.896Z,35.70
2023-04-16T14:58:04.325Z,34.83
2023-04-16T15:00:32.747Z,33.13
2023-04-16T15:03:01.235Z,30.45
2023-04-16T15:05:32.688Z,34.10
2023-04-16T15:08:01.412Z,35.33
2023-04-16T15:10:30.039Z,31.27
2023-04-16T15:12:58.660Z,35.90
2023-04-16T15:15:27.032Z,31.52
2023-04-16T15:17:57.065Z,27.73
2023-04-16T15:20:25.465Z,31.92
2023-04-16T15:22:56.288Z,33.42
2023-04-16T15:25:25.547Z,25.83
2023-04-16T15:27:54.311Z,32.40
2023-04-16T15:30:22.792Z,31.70
2023-04-16T15:32:51.184Z,26.40
2023-04-16T15:35:19.685Z,31.58
2023-04-16T15:37:52.779Z,30.25
2023-04-16T15:40:22.486Z,28.67
2023-04-16T15:42:50.871Z,29.95
2023-04-16T15:45:19.419Z,30.50
2023-04-16T15:47:48.060Z,30.42
2023-04-16T15:50:16.544Z,28.00
2023-04-16T15:52:44.890Z,28.50
2023-04-16T15:55:13.366Z,26.23
2023-04-16T15:57:43.185Z,26.35
2023-04-16T16:00:15.928Z,33.85
2023-04-16T16:02:48.230Z,31.13
2023-04-16T16:05:17.542Z,31.83
2023-04-16T16:07:46.554Z,33.45
2023-04-16T16:10:14.963Z,30.00
2023-04-16T16:12:44.635Z,26.20
2023-04-16T16:15:13.007Z,30.10
2023-04-16T16:17:41.813Z,30.05
2023-04-16T16:20:11.082Z,29.58
2023-04-16T16:22:40.665Z,32.22
2023-04-16T16:25:10.309Z,29.80
2023-04-16T16:27:40.749Z,36.58
2023-04-16T16:30:13.883Z,35.55
2023-04-16T16:32:44.016Z,34.55
2023-04-16T16:35:13.459Z,37.35
2023-04-16T16:37:43.177Z,37.05
2023-04-16T16:40:12.418Z,40.08
2023-04-16T16:42:40.854Z,47.88
2023-04-16T16:45:12.313Z,41.25
2023-04-16T16:47:40.972Z,42.88
2023-04-16T16:50:11.557Z,38.60
2023-04-16T16:52:40.150Z,44.42
2023-04-16T16:55:11.119Z,40.70
2023-04-16T16:57:39.787Z,38.80
2023-04-16T17:00:14.308Z,40.38
2023-04-16T17:02:43.294Z,38.03
2023-04-16T17:05:12.610Z,37.33
2023-04-16T17:07:41.401Z,41.25
2023-04-16T17:10:13.182Z,44.20
2023-04-16T17:12:41.722Z,38.00
2023-04-16T17:15:12.791Z,37.53
2023-04-16T17:17:41.225Z,46.28
2023-04-16T17:20:26.384Z,37.80
2023-04-16T17:22:54.886Z,39.83
2023-04-16T17:25:23.222Z,33.53
2023-04-16T17:27:51.580Z,32.53
2023-04-16T17:30:23.788Z,34.70
2023-04-16T17:32:52.191Z,39.65
2023-04-16T17:35:21.069Z,37.75
2023-04-16T17:37:49.433Z,35.78
2023-04-16T17:40:18.510Z,42.50
2023-04-16T17:42:47.424Z,33.53
2023-04-16T17:45:16.033Z,42.70
2023-04-16T17:47:45.840Z,34.05
2023-04-16T17:50:14.323Z,37.15
2023-04-16T17:52:42.844Z,39.88
2023-04-16T17:55:13.216Z,47.58
2023-04-16T17:57:41.880Z,35.45
2023-04-16T18:00:12.486Z,41.92
2023-04-16T18:02:41.920Z,34.88
2023-04-16T18:05:11.909Z,37.40
2023-04-16T18:07:40.472Z,39.75
2023-04-16T18:10:10.961Z,36.20
2023-04-16T18:12:39.313Z,37.40
2023-04-16T18:15:09.488Z,36.70
2023-04-16T18:17:37.915Z,40.67
2023-04-16T18:20:09.002Z,37.78
2023-04-16T18:22:38.890Z,41.15
2023-04-16T18:25:08.373Z,41.97
2023-04-16T18:27:36.839Z,42.25
2023-04-16T18:30:07.123Z,52.92
2023-04-16T18:32:37.639Z,38.08
2023-04-16T18:35:07.568Z,49.53
2023-04-16T18:37:35.926Z,42.88
2023-04-16T18:40:10.557Z,46.75
2023-04-16T18:42:39.075Z,42.20
2023-04-16T18:45:12.982Z,42.33
2023-04-16T18:47:42.916Z,46.63
2023-04-16T18:50:11.456Z,44.50
2023-04-16T18:52:39.818Z,49.33
2023-04-16T18:55:10.660Z,47.63
2023-04-16T18:57:38.997Z,45.35
2023-04-16T19:00:12.640Z,43.90
2023-04-16T19:02:41.873Z,50.85
2023-04-16T19:05:11.382Z,51.65
2023-04-16T19:07:39.996Z,50.42
2023-04-16T19:10:11.051Z,46.63
2023-04-16T19:12:39.343Z,46.83
2023-04-16T19:15:09.355Z,47.92
2023-04-16T19:17:37.716Z,50.05
2023-04-16T19:20:11.373Z,50.47
2023-04-16T19:22:41.166Z,51.40
2023-04-16T19:25:11.617Z,45.08
2023-04-16T19:27:40.021Z,52.03
2023-04-16T19:30:10.142Z,50.13
2023-04-16T19:32:41.164Z,56.53
2023-04-16T19:35:10.470Z,59.25
2023-04-16T19:37:38.856Z,56.63
2023-04-16T19:40:11.180Z,60.40
2023-04-16T19:42:40.367Z,59.45
2023-04-16T19:45:09.911Z,56.50
2023-04-16T19:47:38.436Z,57.05
2023-04-16T19:50:08.812Z,54.88
2023-04-16T19:52:39.101Z,56.63
2023-04-16T19:55:10.547Z,54.55
2023-04-16T19:57:38.976Z,58.33
2023-04-16T20:00:11.763Z,58.90
2023-04-16T20:02:40.332Z,59.80
2023-04-16T20:05:10.234Z,53.40
2023-04-16T20:07:38.546Z,47.45
2023-04-16T20:10:08.320Z,50.88
2023-04-16T20:12:38.128Z,50.25
2023-04-16T20:15:08.164Z,49.63
2023-04-16T20:17:36.566Z,54.72
2023-04-16T20:20:10.380Z,52.65
2023-04-16T20:22:38.736Z,52.25
2023-04-16T20:25:09.126Z,54.80
2023-04-16T20:27:38.762Z,52.15
2023-04-16T20:30:08.902Z,54.58
2023-04-16T20:32:37.896Z,52.92
2023-04-16T20:35:10.860Z,52.88
2023-04-16T20:37:43.119Z,59.70
2023-04-16T20:40:13.854Z,62.22
2023-04-16T20:42:46.231Z,58.45
2023-04-16T20:45:14.903Z,65.57
2023-04-16T20:47:44.467Z,67.13
2023-04-16T20:50:13.615Z,67.20
2023-04-16T20:52:42.355Z,62.60
2023-04-16T20:55:11.300Z,60.80
2023-04-16T20:57:39.700Z,61.90
2023-04-16T21:00:12.072Z,66.95
2023-04-16T21:02:40.781Z,64.60
2023-04-16T21:05:13.889Z,69.45
2023-04-16T21:07:43.020Z,66.72
2023-04-16T21:10:12.221Z,77.78
2023-04-16T21:12:40.679Z,71.65
2023-04-16T21:15:11.594Z,80.43
2023-04-16T21:17:39.973Z,76.97
2023-04-16T21:20:13.563Z,82.40
2023-04-16T21:22:41.976Z,82.63
2023-04-16T21:25:11.337Z,78.45
2023-04-16T21:27:39.632Z,83.88
2023-04-16T21:30:11.282Z,80.88
2023-04-16T21:32:39.570Z,75.22
2023-04-16T21:35:08.979Z,57.40
2023-04-16T21:37:37.282Z,57.22
2023-04-16T21:40:07.358Z,53.30
2023-04-16T21:42:39.740Z,51.60
2023-04-16T21:45:11.199Z,55.47
2023-04-16T21:47:39.543Z,52.03
2023-04-16T21:50:09.519Z,52.90
2023-04-16T21:52:40.915Z,54.15
2023-04-16T21:55:10.624Z,59.47
2023-04-16T21:57:38.998Z,55.80
2023-04-16T22:00:13.763Z,56.90
2023-04-16T22:02:43.368Z,54.47
2023-04-16T22:05:12.604Z,60.03
2023-04-16T22:07:41.261Z,57.22
2023-04-16T22:10:11.851Z,60.03
2023-04-16T22:12:42.016Z,56.03
2023-04-16T22:15:13.360Z,61.78
2023-04-16T22:17:44.335Z,63.60
2023-04-16T22:20:13.415Z,62.55
2023-04-16T22:22:42.154Z,65.45
2023-04-16T22:25:11.390Z,61.95
2023-04-16T22:27:39.979Z,60.63
2023-04-16T22:30:11.947Z,63.28
2023-04-16T22:32:40.298Z,68.40
2023-04-16T22:35:10.156Z,66.43
2023-04-16T22:37:38.498Z,70.10
2023-04-16T22:40:10.906Z,70.03
2023-04-16T22:42:39.227Z,68.65
2023-04-16T22:45:08.846Z,60.75
2023-04-16T22:47:38.545Z,74.00
2023-04-16T22:50:08.682Z,70.57
2023-04-16T22:52:36.934Z,71.07
2023-04-16T22:55:06.960Z,69.72
2023-04-16T22:57:35.321Z,69.38
2023-04-16T23:00:05.470Z,66.72
2023-04-16T23:02:33.827Z,65.13
2023-04-16T23:05:04.952Z,68.88
2023-04-16T23:07:33.228Z,67.78
2023-04-16T23:10:01.588Z,68.68
2023-04-16T23:12:29.894Z,71.05
2023-04-16T23:14:58.446Z,67.32
2023-04-16T23:17:26.703Z,75.95
2023-04-16T23:19:55.127Z,72.78
2023-04-16T23:22:24.822Z,67.10
2023-04-16T23:24:53.197Z,67.35
2023-04-16T23:27:21.491Z,66.72
2023-04-16T23:29:49.764Z,70.15
2023-04-16T23:32:18.064Z,64.57
2023-04-16T23:34:46.703Z,68.32
2023-04-16T23:37:15.001Z,63.47
2023-04-16T23:39:44.678Z,64.07
2023-04-16T23:42:12.982Z,64.57
2023-04-16T23:44:41.468Z,73.07
2023-04-16T23:47:09.798Z,70.70
2023-04-16T23:49:38.394Z,76.13
2023-04-16T23:52:07.081Z,73.03
2023-04-16T23:54:35.426Z,74.18
2023-04-16T23:57:05.400Z,75.10
2023-04-16T23:59:33.751Z,71.50
